sensor_id;sensor_type;location;lat;lon;timestamp;P1;durP1;ratioP1;P2;durP2;ratioP2
44110;SDS011;29774;52.664;5.074;2023-10-31T00:00:15;4.32;;;2.60;;
44110;SDS011;29774;52.664;5.074;2023-10-31T00:02:41;7.07;;;2.70;;
44110;SDS011;29774;52.664;5.074;2023-10-31T00:05:06;5.50;;;2.38;;
44110;SDS011;29774;52.664;5.074;2023-10-31T00:07:32;3.22;;;2.28;;
44110;SDS011;29774;52.664;5.074;2023-10-31T00:09:57;7.68;;;2.28;;
44110;SDS011;29774;52.664;5.074;2023-10-31T00:12:23;4.80;;;1.80;;
44110;SDS011;29774;52.664;5.074;2023-10-31T00:14:49;3.13;;;1.77;;
44110;SDS011;29774;52.664;5.074;2023-10-31T00:17:14;3.58;;;1.30;;
44110;SDS011;29774;52.664;5.074;2023-10-31T00:19:40;4.70;;;1.73;;
44110;SDS011;29774;52.664;5.074;2023-10-31T00:22:05;5.88;;;1.70;;
44110;SDS011;29774;52.664;5.074;2023-10-31T00:24:31;4.60;;;1.70;;
44110;SDS011;29774;52.664;5.074;2023-10-31T00:26:57;2.10;;;1.30;;
44110;SDS011;29774;52.664;5.074;2023-10-31T00:29:23;2.30;;;1.45;;
44110;SDS011;29774;52.664;5.074;2023-10-31T00:31:49;4.63;;;2.30;;
44110;SDS011;29774;52.664;5.074;2023-10-31T00:34:14;4.18;;;1.35;;
44110;SDS011;29774;52.664;5.074;2023-10-31T00:36:40;2.88;;;1.30;;
44110;SDS011;29774;52.664;5.074;2023-10-31T00:39:06;4.93;;;1.55;;
44110;SDS011;29774;52.664;5.074;2023-10-31T00:41:31;3.53;;;1.30;;
44110;SDS011;29774;52.664;5.074;2023-10-31T00:43:57;3.13;;;1.30;;
44110;SDS011;29774;52.664;5.074;2023-10-31T00:46:23;5.60;;;1.33;;
44110;SDS011;29774;52.664;5.074;2023-10-31T00:48:49;4.43;;;1.05;;
44110;SDS011;29774;52.664;5.074;2023-10-31T00:51:15;1.70;;;1.00;;
44110;SDS011;29774;52.664;5.074;2023-10-31T00:53:41;3.33;;;1.08;;
44110;SDS011;29774;52.664;5.074;2023-10-31T00:56:07;5.18;;;1.23;;
44110;SDS011;29774;52.664;5.074;2023-10-31T00:58:32;3.38;;;0.98;;
44110;SDS011;29774;52.664;5.074;2023-10-31T01:00:58;3.95;;;0.90;;
44110;SDS011;29774;52.664;5.074;2023-10-31T01:03:24;2.70;;;0.98;;
44110;SDS011;29774;52.664;5.074;2023-10-31T01:05:49;3.58;;;1.15;;
44110;SDS011;29774;52.664;5.074;2023-10-31T01:08:15;4.22;;;1.20;;
44110;SDS011;29774;52.664;5.074;2023-10-31T01:10:40;4.28;;;1.10;;
44110;SDS011;29774;52.664;5.074;2023-10-31T01:13:06;1.95;;;1.08;;
44110;SDS011;29774;52.664;5.074;2023-10-31T01:15:32;2.95;;;1.13;;
44110;SDS011;29774;52.664;5.074;2023-10-31T01:17:57;3.13;;;1.15;;
44110;SDS011;29774;52.664;5.074;2023-10-31T01:20:23;2.88;;;1.30;;
44110;SDS011;29774;52.664;5.074;2023-10-31T01:22:49;2.30;;;0.80;;
44110;SDS011;29774;52.664;5.074;2023-10-31T01:25:15;2.53;;;1.08;;
44110;SDS011;29774;52.664;5.074;2023-10-31T01:27:40;2.35;;;1.20;;
44110;SDS011;29774;52.664;5.074;2023-10-31T01:30:07;3.97;;;1.20;;
44110;SDS011;29774;52.664;5.074;2023-10-31T01:32:33;4.93;;;1.40;;
44110;SDS011;29774;52.664;5.074;2023-10-31T01:34:59;3.70;;;1.10;;
44110;SDS011;29774;52.664;5.074;2023-10-31T01:37:24;4.13;;;1.35;;
44110;SDS011;29774;52.664;5.074;2023-10-31T01:39:50;4.28;;;1.20;;
44110;SDS011;29774;52.664;5.074;2023-10-31T01:42:16;5.82;;;1.10;;
44110;SDS011;29774;52.664;5.074;2023-10-31T01:44:42;4.57;;;1.33;;
44110;SDS011;29774;52.664;5.074;2023-10-31T01:47:07;7.30;;;1.63;;
44110;SDS011;29774;52.664;5.074;2023-10-31T01:49:34;2.95;;;1.55;;
44110;SDS011;29774;52.664;5.074;2023-10-31T01:52:03;4.80;;;1.50;;
44110;SDS011;29774;52.664;5.074;2023-10-31T01:54:29;4.38;;;1.88;;
44110;SDS011;29774;52.664;5.074;2023-10-31T01:56:56;3.20;;;1.90;;
44110;SDS011;29774;52.664;5.074;2023-10-31T01:59:26;3.55;;;1.92;;
44110;SDS011;29774;52.664;5.074;2023-10-31T02:01:52;6.50;;;2.40;;
44110;SDS011;29774;52.664;5.074;2023-10-31T02:04:19;4.70;;;2.03;;
44110;SDS011;29774;52.664;5.074;2023-10-31T02:06:45;5.28;;;2.30;;
44110;SDS011;29774;52.664;5.074;2023-10-31T02:09:10;6.40;;;2.50;;
44110;SDS011;29774;52.664;5.074;2023-10-31T02:11:36;4.68;;;2.28;;
44110;SDS011;29774;52.664;5.074;2023-10-31T02:14:02;4.55;;;2.25;;
44110;SDS011;29774;52.664;5.074;2023-10-31T02:16:28;4.05;;;2.33;;
44110;SDS011;29774;52.664;5.074;2023-10-31T02:18:54;5.32;;;2.65;;
44110;SDS011;29774;52.664;5.074;2023-10-31T02:21:19;4.50;;;2.08;;
44110;SDS011;29774;52.664;5.074;2023-10-31T02:23:58;6.30;;;2.35;;
44110;SDS011;29774;52.664;5.074;2023-10-31T02:26:34;3.97;;;2.25;;
44110;SDS011;29774;52.664;5.074;2023-10-31T02:29:00;4.32;;;2.10;;
44110;SDS011;29774;52.664;5.074;2023-10-31T02:31:27;4.88;;;2.15;;
44110;SDS011;29774;52.664;5.074;2023-10-31T02:33:53;4.88;;;1.75;;
44110;SDS011;29774;52.664;5.074;2023-10-31T02:36:19;4.78;;;1.85;;
44110;SDS011;29774;52.664;5.074;2023-10-31T02:38:45;7.72;;;1.65;;
44110;SDS011;29774;52.664;5.074;2023-10-31T02:41:11;3.10;;;1.70;;
44110;SDS011;29774;52.664;5.074;2023-10-31T02:43:37;3.40;;;1.50;;
44110;SDS011;29774;52.664;5.074;2023-10-31T02:46:03;2.53;;;1.67;;
44110;SDS011;29774;52.664;5.074;2023-10-31T02:48:29;3.38;;;1.10;;
44110;SDS011;29774;52.664;5.074;2023-10-31T02:50:56;4.10;;;1.20;;
44110;SDS011;29774;52.664;5.074;2023-10-31T02:53:23;1.27;;;1.15;;
44110;SDS011;29774;52.664;5.074;2023-10-31T02:55:48;2.08;;;0.73;;
44110;SDS011;29774;52.664;5.074;2023-10-31T02:58:14;2.03;;;1.00;;
44110;SDS011;29774;52.664;5.074;2023-10-31T03:00:42;6.47;;;0.60;;
44110;SDS011;29774;52.664;5.074;2023-10-31T03:03:08;1.30;;;0.70;;
44110;SDS011;29774;52.664;5.074;2023-10-31T03:05:33;2.72;;;0.82;;
44110;SDS011;29774;52.664;5.074;2023-10-31T03:07:59;1.65;;;0.50;;
44110;SDS011;29774;52.664;5.074;2023-10-31T03:10:25;3.10;;;0.60;;
44110;SDS011;29774;52.664;5.074;2023-10-31T03:12:51;3.30;;;0.55;;
44110;SDS011;29774;52.664;5.074;2023-10-31T03:15:17;3.65;;;0.50;;
44110;SDS011;29774;52.664;5.074;2023-10-31T03:17:42;1.50;;;0.60;;
44110;SDS011;29774;52.664;5.074;2023-10-31T03:20:08;3.25;;;0.60;;
44110;SDS011;29774;52.664;5.074;2023-10-31T03:22:34;1.10;;;0.70;;
44110;SDS011;29774;52.664;5.074;2023-10-31T03:25:00;1.58;;;0.50;;
44110;SDS011;29774;52.664;5.074;2023-10-31T03:27:26;2.50;;;0.40;;
44110;SDS011;29774;52.664;5.074;2023-10-31T03:29:51;0.30;;;0.30;;
44110;SDS011;29774;52.664;5.074;2023-10-31T03:32:17;1.75;;;0.32;;
44110;SDS011;29774;52.664;5.074;2023-10-31T03:34:43;3.05;;;0.40;;
44110;SDS011;29774;52.664;5.074;2023-10-31T03:37:08;6.25;;;0.82;;
44110;SDS011;29774;52.664;5.074;2023-10-31T03:39:34;1.85;;;0.20;;
44110;SDS011;29774;52.664;5.074;2023-10-31T03:41:59;0.73;;;0.43;;
44110;SDS011;29774;52.664;5.074;2023-10-31T03:44:25;1.83;;;0.50;;
44110;SDS011;29774;52.664;5.074;2023-10-31T03:46:51;1.02;;;0.40;;
44110;SDS011;29774;52.664;5.074;2023-10-31T03:49:16;0.52;;;0.40;;
44110;SDS011;29774;52.664;5.074;2023-10-31T03:51:42;3.47;;;0.47;;
44110;SDS011;29774;52.664;5.074;2023-10-31T03:54:08;3.35;;;1.25;;
44110;SDS011;29774;52.664;5.074;2023-10-31T03:56:40;3.08;;;0.43;;
44110;SDS011;29774;52.664;5.074;2023-10-31T03:59:05;0.50;;;0.38;;
44110;SDS011;29774;52.664;5.074;2023-10-31T04:01:31;0.30;;;0.25;;
44110;SDS011;29774;52.664;5.074;2023-10-31T04:03:57;2.67;;;0.70;;
44110;SDS011;29774;52.664;5.074;2023-10-31T04:06:22;1.67;;;0.52;;
44110;SDS011;29774;52.664;5.074;2023-10-31T04:08:48;3.22;;;0.65;;
44110;SDS011;29774;52.664;5.074;2023-10-31T04:11:13;1.27;;;0.68;;
44110;SDS011;29774;52.664;5.074;2023-10-31T04:13:39;3.22;;;0.90;;
44110;SDS011;29774;52.664;5.074;2023-10-31T04:16:05;4.53;;;0.80;;
44110;SDS011;29774;52.664;5.074;2023-10-31T04:18:30;3.83;;;0.88;;
44110;SDS011;29774;52.664;5.074;2023-10-31T04:20:56;4.35;;;1.08;;
44110;SDS011;29774;52.664;5.074;2023-10-31T04:23:22;2.88;;;1.08;;
44110;SDS011;29774;52.664;5.074;2023-10-31T04:25:47;1.52;;;0.80;;
44110;SDS011;29774;52.664;5.074;2023-10-31T04:28:13;3.03;;;0.85;;
44110;SDS011;29774;52.664;5.074;2023-10-31T04:30:39;2.90;;;1.20;;
44110;SDS011;29774;52.664;5.074;2023-10-31T04:33:05;1.33;;;0.98;;
44110;SDS011;29774;52.664;5.074;2023-10-31T04:35:31;1.58;;;1.02;;
44110;SDS011;29774;52.664;5.074;2023-10-31T04:37:56;5.85;;;1.60;;
44110;SDS011;29774;52.664;5.074;2023-10-31T04:40:22;3.92;;;1.17;;
44110;SDS011;29774;52.664;5.074;2023-10-31T04:42:47;1.58;;;1.00;;
44110;SDS011;29774;52.664;5.074;2023-10-31T04:45:13;2.80;;;1.50;;
44110;SDS011;29774;52.664;5.074;2023-10-31T04:47:39;3.97;;;1.23;;
44110;SDS011;29774;52.664;5.074;2023-10-31T04:50:06;5.95;;;1.48;;
44110;SDS011;29774;52.664;5.074;2023-10-31T04:52:31;4.20;;;1.35;;
44110;SDS011;29774;52.664;5.074;2023-10-31T04:54:57;2.17;;;1.17;;
44110;SDS011;29774;52.664;5.074;2023-10-31T04:57:23;3.38;;;0.90;;
44110;SDS011;29774;52.664;5.074;2023-10-31T04:59:48;4.88;;;1.13;;
44110;SDS011;29774;52.664;5.074;2023-10-31T05:02:14;5.00;;;1.00;;
44110;SDS011;29774;52.664;5.074;2023-10-31T05:04:39;3.10;;;1.10;;
44110;SDS011;29774;52.664;5.074;2023-10-31T05:07:05;5.35;;;0.90;;
44110;SDS011;29774;52.664;5.074;2023-10-31T05:09:31;4.55;;;1.17;;
44110;SDS011;29774;52.664;5.074;2023-10-31T05:11:56;3.42;;;1.17;;
44110;SDS011;29774;52.664;5.074;2023-10-31T05:14:22;2.47;;;0.90;;
44110;SDS011;29774;52.664;5.074;2023-10-31T05:16:48;1.80;;;0.60;;
44110;SDS011;29774;52.664;5.074;2023-10-31T05:19:13;3.17;;;0.70;;
44110;SDS011;29774;52.664;5.074;2023-10-31T05:21:39;2.53;;;0.70;;
44110;SDS011;29774;52.664;5.074;2023-10-31T05:24:04;4.07;;;0.82;;
44110;SDS011;29774;52.664;5.074;2023-10-31T05:26:31;3.08;;;0.60;;
44110;SDS011;29774;52.664;5.074;2023-10-31T05:28:56;1.98;;;0.73;;
44110;SDS011;29774;52.664;5.074;2023-10-31T05:31:23;2.83;;;0.60;;
44110;SDS011;29774;52.664;5.074;2023-10-31T05:33:49;3.55;;;0.77;;
44110;SDS011;29774;52.664;5.074;2023-10-31T05:36:20;3.63;;;0.70;;
44110;SDS011;29774;52.664;5.074;2023-10-31T05:38:46;3.10;;;0.65;;
44110;SDS011;29774;52.664;5.074;2023-10-31T05:41:12;2.22;;;0.70;;
44110;SDS011;29774;52.664;5.074;2023-10-31T05:43:39;5.90;;;0.80;;
44110;SDS011;29774;52.664;5.074;2023-10-31T05:46:04;2.67;;;0.65;;
44110;SDS011;29774;52.664;5.074;2023-10-31T05:48:31;3.10;;;0.57;;
44110;SDS011;29774;52.664;5.074;2023-10-31T05:50:58;5.03;;;1.00;;
44110;SDS011;29774;52.664;5.074;2023-10-31T05:53:23;4.97;;;1.00;;
44110;SDS011;29774;52.664;5.074;2023-10-31T05:55:49;5.05;;;0.93;;
44110;SDS011;29774;52.664;5.074;2023-10-31T05:58:14;3.83;;;1.08;;
44110;SDS011;29774;52.664;5.074;2023-10-31T06:00:40;0.93;;;0.55;;
44110;SDS011;29774;52.664;5.074;2023-10-31T06:03:06;4.47;;;0.90;;
44110;SDS011;29774;52.664;5.074;2023-10-31T06:05:32;4.00;;;0.70;;
44110;SDS011;29774;52.664;5.074;2023-10-31T06:07:57;2.25;;;0.70;;
44110;SDS011;29774;52.664;5.074;2023-10-31T06:10:23;2.75;;;0.75;;
44110;SDS011;29774;52.664;5.074;2023-10-31T06:12:48;2.15;;;0.68;;
44110;SDS011;29774;52.664;5.074;2023-10-31T06:15:14;4.32;;;0.80;;
44110;SDS011;29774;52.664;5.074;2023-10-31T06:17:39;0.90;;;0.43;;
44110;SDS011;29774;52.664;5.074;2023-10-31T06:20:08;2.22;;;0.57;;
44110;SDS011;29774;52.664;5.074;2023-10-31T06:22:34;1.90;;;0.60;;
44110;SDS011;29774;52.664;5.074;2023-10-31T06:25:00;2.90;;;0.63;;
44110;SDS011;29774;52.664;5.074;2023-10-31T06:27:26;1.50;;;0.70;;
44110;SDS011;29774;52.664;5.074;2023-10-31T06:29:52;0.98;;;0.43;;
44110;SDS011;29774;52.664;5.074;2023-10-31T06:32:18;3.00;;;0.50;;
44110;SDS011;29774;52.664;5.074;2023-10-31T06:34:43;2.65;;;0.50;;
44110;SDS011;29774;52.664;5.074;2023-10-31T06:37:09;1.08;;;0.38;;
44110;SDS011;29774;52.664;5.074;2023-10-31T06:39:34;1.05;;;0.40;;
44110;SDS011;29774;52.664;5.074;2023-10-31T06:42:00;1.35;;;0.55;;
44110;SDS011;29774;52.664;5.074;2023-10-31T06:44:25;1.55;;;0.40;;
44110;SDS011;29774;52.664;5.074;2023-10-31T06:46:51;0.73;;;0.32;;
44110;SDS011;29774;52.664;5.074;2023-10-31T06:49:17;1.73;;;0.57;;
44110;SDS011;29774;52.664;5.074;2023-10-31T06:51:44;1.45;;;0.50;;
44110;SDS011;29774;52.664;5.074;2023-10-31T06:54:10;3.38;;;0.90;;
44110;SDS011;29774;52.664;5.074;2023-10-31T06:56:35;1.55;;;0.80;;
44110;SDS011;29774;52.664;5.074;2023-10-31T06:59:01;2.60;;;1.02;;
44110;SDS011;29774;52.664;5.074;2023-10-31T07:01:26;3.38;;;0.60;;
44110;SDS011;29774;52.664;5.074;2023-10-31T07:03:52;1.52;;;0.50;;
44110;SDS011;29774;52.664;5.074;2023-10-31T07:06:18;1.10;;;0.50;;
44110;SDS011;29774;52.664;5.074;2023-10-31T07:08:43;1.77;;;0.45;;
44110;SDS011;29774;52.664;5.074;2023-10-31T07:11:09;1.10;;;0.50;;
44110;SDS011;29774;52.664;5.074;2023-10-31T07:13:34;2.35;;;0.77;;
44110;SDS011;29774;52.664;5.074;2023-10-31T07:16:00;0.98;;;0.63;;
44110;SDS011;29774;52.664;5.074;2023-10-31T07:18:25;2.00;;;0.50;;
44110;SDS011;29774;52.664;5.074;2023-10-31T07:20:51;1.58;;;0.30;;
44110;SDS011;29774;52.664;5.074;2023-10-31T07:23:18;0.95;;;0.40;;
44110;SDS011;29774;52.664;5.074;2023-10-31T07:25:43;1.88;;;0.60;;
44110;SDS011;29774;52.664;5.074;2023-10-31T07:28:09;3.00;;;0.50;;
44110;SDS011;29774;52.664;5.074;2023-10-31T07:30:34;1.77;;;0.52;;
44110;SDS011;29774;52.664;5.074;2023-10-31T07:33:00;1.67;;;0.60;;
44110;SDS011;29774;52.664;5.074;2023-10-31T07:35:26;2.92;;;0.73;;
44110;SDS011;29774;52.664;5.074;2023-10-31T07:37:52;2.53;;;0.73;;
44110;SDS011;29774;52.664;5.074;2023-10-31T07:40:17;1.40;;;0.40;;
44110;SDS011;29774;52.664;5.074;2023-10-31T07:42:43;3.03;;;0.85;;
44110;SDS011;29774;52.664;5.074;2023-10-31T07:45:08;3.00;;;0.90;;
44110;SDS011;29774;52.664;5.074;2023-10-31T07:47:35;2.40;;;0.70;;
44110;SDS011;29774;52.664;5.074;2023-10-31T07:50:01;1.25;;;0.60;;
44110;SDS011;29774;52.664;5.074;2023-10-31T07:52:26;1.42;;;0.80;;
44110;SDS011;29774;52.664;5.074;2023-10-31T07:54:52;0.90;;;0.60;;
44110;SDS011;29774;52.664;5.074;2023-10-31T07:57:17;1.63;;;0.60;;
44110;SDS011;29774;52.664;5.074;2023-10-31T07:59:44;1.52;;;0.60;;
44110;SDS011;29774;52.664;5.074;2023-10-31T08:02:09;0.75;;;0.50;;
44110;SDS011;29774;52.664;5.074;2023-10-31T08:04:35;1.30;;;0.47;;
44110;SDS011;29774;52.664;5.074;2023-10-31T08:07:01;2.65;;;0.60;;
44110;SDS011;29774;52.664;5.074;2023-10-31T08:09:27;0.82;;;0.43;;
44110;SDS011;29774;52.664;5.074;2023-10-31T08:11:52;0.60;;;0.40;;
44110;SDS011;29774;52.664;5.074;2023-10-31T08:14:18;1.48;;;0.60;;
44110;SDS011;29774;52.664;5.074;2023-10-31T08:16:44;2.53;;;0.70;;
44110;SDS011;29774;52.664;5.074;2023-10-31T08:19:09;1.90;;;0.70;;
44110;SDS011;29774;52.664;5.074;2023-10-31T08:21:35;3.60;;;0.80;;
44110;SDS011;29774;52.664;5.074;2023-10-31T08:24:03;1.38;;;0.90;;
44110;SDS011;29774;52.664;5.074;2023-10-31T08:26:30;4.38;;;0.93;;
44110;SDS011;29774;52.664;5.074;2023-10-31T08:28:56;1.63;;;0.77;;
44110;SDS011;29774;52.664;5.074;2023-10-31T08:31:22;2.45;;;0.70;;
44110;SDS011;29774;52.664;5.074;2023-10-31T08:33:48;2.15;;;0.90;;
44110;SDS011;29774;52.664;5.074;2023-10-31T08:36:13;1.85;;;0.77;;
44110;SDS011;29774;52.664;5.074;2023-10-31T08:38:39;2.17;;;0.65;;
44110;SDS011;29774;52.664;5.074;2023-10-31T08:41:05;5.95;;;0.90;;
44110;SDS011;29774;52.664;5.074;2023-10-31T08:43:30;2.10;;;1.15;;
44110;SDS011;29774;52.664;5.074;2023-10-31T08:45:56;2.63;;;0.93;;
44110;SDS011;29774;52.664;5.074;2023-10-31T08:48:22;1.27;;;0.50;;
44110;SDS011;29774;52.664;5.074;2023-10-31T08:50:47;2.85;;;0.70;;
44110;SDS011;29774;52.664;5.074;2023-10-31T08:53:13;3.63;;;0.77;;
44110;SDS011;29774;52.664;5.074;2023-10-31T08:55:39;3.65;;;0.85;;
44110;SDS011;29774;52.664;5.074;2023-10-31T08:58:09;5.82;;;1.10;;
44110;SDS011;29774;52.664;5.074;2023-10-31T09:00:40;4.80;;;1.50;;
44110;SDS011;29774;52.664;5.074;2023-10-31T09:03:06;2.22;;;1.00;;
44110;SDS011;29774;52.664;5.074;2023-10-31T09:05:33;1.98;;;0.70;;
44110;SDS011;29774;52.664;5.074;2023-10-31T09:07:58;1.92;;;0.55;;
44110;SDS011;29774;52.664;5.074;2023-10-31T09:10:24;3.33;;;0.90;;
44110;SDS011;29774;52.664;5.074;2023-10-31T09:12:49;2.78;;;0.75;;
44110;SDS011;29774;52.664;5.074;2023-10-31T09:15:15;4.93;;;0.93;;
44110;SDS011;29774;52.664;5.074;2023-10-31T09:17:41;0.90;;;0.65;;
44110;SDS011;29774;52.664;5.074;2023-10-31T09:20:06;2.20;;;0.82;;
44110;SDS011;29774;52.664;5.074;2023-10-31T09:22:33;1.17;;;0.75;;
44110;SDS011;29774;52.664;5.074;2023-10-31T09:24:59;2.05;;;0.70;;
44110;SDS011;29774;52.664;5.074;2023-10-31T09:27:24;5.65;;;0.85;;
44110;SDS011;29774;52.664;5.074;2023-10-31T09:29:50;3.67;;;0.90;;
44110;SDS011;29774;52.664;5.074;2023-10-31T09:32:17;3.60;;;0.50;;
44110;SDS011;29774;52.664;5.074;2023-10-31T09:34:43;2.10;;;0.60;;
44110;SDS011;29774;52.664;5.074;2023-10-31T09:37:09;4.13;;;0.93;;
44110;SDS011;29774;52.664;5.074;2023-10-31T09:39:34;3.80;;;0.80;;
44110;SDS011;29774;52.664;5.074;2023-10-31T09:42:00;2.95;;;0.55;;
44110;SDS011;29774;52.664;5.074;2023-10-31T09:44:26;0.57;;;0.30;;
44110;SDS011;29774;52.664;5.074;2023-10-31T09:46:51;2.35;;;0.40;;
44110;SDS011;29774;52.664;5.074;2023-10-31T09:49:17;4.38;;;0.63;;
44110;SDS011;29774;52.664;5.074;2023-10-31T09:51:43;3.13;;;0.40;;
44110;SDS011;29774;52.664;5.074;2023-10-31T09:54:11;2.47;;;0.57;;
44110;SDS011;29774;52.664;5.074;2023-10-31T09:56:40;2.92;;;0.57;;
44110;SDS011;29774;52.664;5.074;2023-10-31T09:59:06;1.73;;;0.40;;
44110;SDS011;29774;52.664;5.074;2023-10-31T10:01:32;4.47;;;0.50;;
44110;SDS011;29774;52.664;5.074;2023-10-31T10:03:58;2.30;;;0.40;;
44110;SDS011;29774;52.664;5.074;2023-10-31T10:06:24;3.65;;;0.70;;
44110;SDS011;29774;52.664;5.074;2023-10-31T10:08:50;0.95;;;0.40;;
44110;SDS011;29774;52.664;5.074;2023-10-31T10:11:16;0.60;;;0.40;;
44110;SDS011;29774;52.664;5.074;2023-10-31T10:13:42;0.63;;;0.40;;
44110;SDS011;29774;52.664;5.074;2023-10-31T10:16:08;2.92;;;0.60;;
44110;SDS011;29774;52.664;5.074;2023-10-31T10:18:35;1.02;;;0.40;;
44110;SDS011;29774;52.664;5.074;2023-10-31T10:21:04;4.03;;;0.50;;
44110;SDS011;29774;52.664;5.074;2023-10-31T10:23:31;4.45;;;0.63;;
44110;SDS011;29774;52.664;5.074;2023-10-31T10:25:58;3.10;;;0.55;;
44110;SDS011;29774;52.664;5.074;2023-10-31T10:28:25;3.85;;;0.50;;
44110;SDS011;29774;52.664;5.074;2023-10-31T10:30:52;0.73;;;0.35;;
44110;SDS011;29774;52.664;5.074;2023-10-31T10:33:21;3.13;;;0.70;;
44110;SDS011;29774;52.664;5.074;2023-10-31T10:35:47;1.50;;;0.63;;
44110;SDS011;29774;52.664;5.074;2023-10-31T10:38:14;0.82;;;0.43;;
44110;SDS011;29774;52.664;5.074;2023-10-31T10:40:42;1.35;;;0.30;;
44110;SDS011;29774;52.664;5.074;2023-10-31T10:43:22;1.33;;;0.63;;
44110;SDS011;29774;52.664;5.074;2023-10-31T10:45:56;1.73;;;0.40;;
44110;SDS011;29774;52.664;5.074;2023-10-31T10:48:23;0.65;;;0.22;;
44110;SDS011;29774;52.664;5.074;2023-10-31T10:50:52;4.57;;;0.47;;
44110;SDS011;29774;52.664;5.074;2023-10-31T10:53:25;0.75;;;0.32;;
44110;SDS011;29774;52.664;5.074;2023-10-31T10:56:00;0.63;;;0.30;;
44110;SDS011;29774;52.664;5.074;2023-10-31T10:58:36;3.03;;;0.50;;
44110;SDS011;29774;52.664;5.074;2023-10-31T11:01:08;3.88;;;0.70;;
44110;SDS011;29774;52.664;5.074;2023-10-31T11:03:35;2.50;;;0.50;;
44110;SDS011;29774;52.664;5.074;2023-10-31T11:06:01;3.60;;;0.82;;
44110;SDS011;29774;52.664;5.074;2023-10-31T11:08:28;3.88;;;1.00;;
44110;SDS011;29774;52.664;5.074;2023-10-31T11:10:55;1.60;;;0.40;;
44110;SDS011;29774;52.664;5.074;2023-10-31T11:13:22;2.88;;;0.50;;
44110;SDS011;29774;52.664;5.074;2023-10-31T11:15:48;1.00;;;0.40;;
44110;SDS011;29774;52.664;5.074;2023-10-31T11:18:22;2.50;;;0.55;;
44110;SDS011;29774;52.664;5.074;2023-10-31T11:20:49;1.23;;;0.40;;
44110;SDS011;29774;52.664;5.074;2023-10-31T11:23:15;0.43;;;0.30;;
44110;SDS011;29774;52.664;5.074;2023-10-31T11:25:44;1.13;;;0.38;;
44110;SDS011;29774;52.664;5.074;2023-10-31T11:28:15;1.20;;;0.32;;
44110;SDS011;29774;52.664;5.074;2023-10-31T11:30:42;1.15;;;0.40;;
44110;SDS011;29774;52.664;5.074;2023-10-31T11:33:13;3.20;;;0.40;;
44110;SDS011;29774;52.664;5.074;2023-10-31T11:35:41;3.72;;;0.63;;
44110;SDS011;29774;52.664;5.074;2023-10-31T11:38:09;2.03;;;0.47;;
44110;SDS011;29774;52.664;5.074;2023-10-31T11:40:37;2.78;;;0.57;;
44110;SDS011;29774;52.664;5.074;2023-10-31T11:43:09;1.08;;;0.38;;
44110;SDS011;29774;52.664;5.074;2023-10-31T11:45:45;2.67;;;0.40;;
44110;SDS011;29774;52.664;5.074;2023-10-31T11:48:13;0.77;;;0.30;;
44110;SDS011;29774;52.664;5.074;2023-10-31T11:50:39;1.58;;;0.38;;
44110;SDS011;29774;52.664;5.074;2023-10-31T11:53:12;2.15;;;0.45;;
44110;SDS011;29774;52.664;5.074;2023-10-31T11:55:43;2.85;;;0.30;;
44110;SDS011;29774;52.664;5.074;2023-10-31T11:58:21;2.65;;;0.50;;
44110;SDS011;29774;52.664;5.074;2023-10-31T12:00:48;1.20;;;0.30;;
44110;SDS011;29774;52.664;5.074;2023-10-31T12:03:19;1.77;;;0.40;;
44110;SDS011;29774;52.664;5.074;2023-10-31T12:05:55;2.08;;;0.40;;
44110;SDS011;29774;52.664;5.074;2023-10-31T12:08:26;1.75;;;0.43;;
44110;SDS011;29774;52.664;5.074;2023-10-31T12:13:38;2.45;;;0.43;;
44110;SDS011;29774;52.664;5.074;2023-10-31T12:16:05;1.40;;;0.35;;
44110;SDS011;29774;52.664;5.074;2023-10-31T12:18:33;1.85;;;0.60;;
44110;SDS011;29774;52.664;5.074;2023-10-31T12:20:59;5.15;;;0.60;;
44110;SDS011;29774;52.664;5.074;2023-10-31T12:23:25;2.15;;;0.60;;
44110;SDS011;29774;52.664;5.074;2023-10-31T12:25:51;5.65;;;1.98;;
44110;SDS011;29774;52.664;5.074;2023-10-31T12:30:47;4.47;;;0.40;;
44110;SDS011;29774;52.664;5.074;2023-10-31T12:33:15;1.15;;;0.50;;
44110;SDS011;29774;52.664;5.074;2023-10-31T12:35:41;2.13;;;0.85;;
44110;SDS011;29774;52.664;5.074;2023-10-31T12:38:10;0.80;;;0.50;;
44110;SDS011;29774;52.664;5.074;2023-10-31T12:40:36;1.67;;;0.47;;
44110;SDS011;29774;52.664;5.074;2023-10-31T12:43:02;2.25;;;0.45;;
44110;SDS011;29774;52.664;5.074;2023-10-31T12:45:28;1.40;;;0.50;;
44110;SDS011;29774;52.664;5.074;2023-10-31T12:48:04;3.33;;;0.55;;
44110;SDS011;29774;52.664;5.074;2023-10-31T12:50:30;3.28;;;0.40;;
44110;SDS011;29774;52.664;5.074;2023-10-31T12:52:57;0.65;;;0.38;;
44110;SDS011;29774;52.664;5.074;2023-10-31T12:55:25;2.67;;;0.50;;
44110;SDS011;29774;52.664;5.074;2023-10-31T12:57:54;2.25;;;0.43;;
44110;SDS011;29774;52.664;5.074;2023-10-31T13:00:21;0.70;;;0.30;;
44110;SDS011;29774;52.664;5.074;2023-10-31T13:03:11;1.00;;;0.30;;
44110;SDS011;29774;52.664;5.074;2023-10-31T13:05:36;2.28;;;0.45;;
44110;SDS011;29774;52.664;5.074;2023-10-31T13:08:08;1.90;;;0.70;;
44110;SDS011;29774;52.664;5.074;2023-10-31T13:10:39;2.10;;;0.50;;
44110;SDS011;29774;52.664;5.074;2023-10-31T13:13:05;1.58;;;0.50;;
44110;SDS011;29774;52.664;5.074;2023-10-31T13:15:30;1.20;;;0.40;;
44110;SDS011;29774;52.664;5.074;2023-10-31T13:17:56;0.93;;;0.38;;
44110;SDS011;29774;52.664;5.074;2023-10-31T13:20:22;1.73;;;0.40;;
44110;SDS011;29774;52.664;5.074;2023-10-31T13:22:48;2.28;;;0.40;;
44110;SDS011;29774;52.664;5.074;2023-10-31T13:25:14;1.60;;;0.43;;
44110;SDS011;29774;52.664;5.074;2023-10-31T13:27:41;1.33;;;0.30;;
44110;SDS011;29774;52.664;5.074;2023-10-31T13:30:09;1.92;;;0.40;;
44110;SDS011;29774;52.664;5.074;2023-10-31T13:32:36;2.55;;;0.30;;
44110;SDS011;29774;52.664;5.074;2023-10-31T13:35:02;1.35;;;0.30;;
44110;SDS011;29774;52.664;5.074;2023-10-31T13:37:29;1.92;;;0.60;;
44110;SDS011;29774;52.664;5.074;2023-10-31T13:39:55;2.80;;;0.65;;
44110;SDS011;29774;52.664;5.074;2023-10-31T13:42:21;1.90;;;0.35;;
44110;SDS011;29774;52.664;5.074;2023-10-31T13:44:47;1.45;;;0.40;;
44110;SDS011;29774;52.664;5.074;2023-10-31T13:47:13;0.57;;;0.40;;
44110;SDS011;29774;52.664;5.074;2023-10-31T13:49:39;1.83;;;0.52;;
44110;SDS011;29774;52.664;5.074;2023-10-31T13:52:05;2.05;;;0.40;;
44110;SDS011;29774;52.664;5.074;2023-10-31T13:54:34;4.43;;;0.70;;
44110;SDS011;29774;52.664;5.074;2023-10-31T13:56:59;3.97;;;0.47;;
44110;SDS011;29774;52.664;5.074;2023-10-31T13:59:25;1.70;;;0.50;;
44110;SDS011;29774;52.664;5.074;2023-10-31T14:01:51;1.98;;;0.98;;
44110;SDS011;29774;52.664;5.074;2023-10-31T14:04:17;1.02;;;0.60;;
44110;SDS011;29774;52.664;5.074;2023-10-31T14:06:44;1.23;;;0.50;;
44110;SDS011;29774;52.664;5.074;2023-10-31T14:09:10;0.60;;;0.50;;
44110;SDS011;29774;52.664;5.074;2023-10-31T14:11:37;1.10;;;0.50;;
44110;SDS011;29774;52.664;5.074;2023-10-31T14:14:03;0.22;;;0.22;;
44110;SDS011;29774;52.664;5.074;2023-10-31T14:16:37;1.73;;;0.47;;
44110;SDS011;29774;52.664;5.074;2023-10-31T14:19:05;1.20;;;0.40;;
44110;SDS011;29774;52.664;5.074;2023-10-31T14:21:34;0.43;;;0.40;;
44110;SDS011;29774;52.664;5.074;2023-10-31T14:24:00;0.43;;;0.43;;
44110;SDS011;29774;52.664;5.074;2023-10-31T14:26:26;0.60;;;0.40;;
44110;SDS011;29774;52.664;5.074;2023-10-31T14:28:53;2.35;;;0.70;;
44110;SDS011;29774;52.664;5.074;2023-10-31T14:31:19;1.23;;;0.77;;
44110;SDS011;29774;52.664;5.074;2023-10-31T14:33:47;1.05;;;0.60;;
44110;SDS011;29774;52.664;5.074;2023-10-31T14:36:13;2.10;;;0.52;;
44110;SDS011;29774;52.664;5.074;2023-10-31T14:38:39;1.08;;;0.40;;
44110;SDS011;29774;52.664;5.074;2023-10-31T14:41:06;0.47;;;0.47;;
44110;SDS011;29774;52.664;5.074;2023-10-31T14:43:32;0.65;;;0.50;;
44110;SDS011;29774;52.664;5.074;2023-10-31T14:45:58;2.10;;;0.38;;
44110;SDS011;29774;52.664;5.074;2023-10-31T14:48:24;1.75;;;0.35;;